createdAt,value
2023-05-08T00:00:44.484Z,9.10
2023-05-08T00:03:47.880Z,9.02
2023-05-08T00:06:51.803Z,8.83
2023-05-08T00:09:54.942Z,8.87
2023-05-08T00:12:57.616Z,8.94
2023-05-08T00:16:00.725Z,9.05
2023-05-08T00:19:03.937Z,8.95
2023-05-08T00:22:06.940Z,9.03
2023-05-08T00:25:09.970Z,9.08
2023-05-08T00:28:13.109Z,9.11
2023-05-08T00:31:15.898Z,8.98
2023-05-08T00:34:18.856Z,9.13
2023-05-08T00:37:21.687Z,9.14
2023-05-08T00:40:25.390Z,9.16
2023-05-08T00:43:28.811Z,8.99
2023-05-08T00:46:31.903Z,9.02
2023-05-08T00:49:36.163Z,8.96
2023-05-08T00:52:39.772Z,8.76
2023-05-08T00:55:42.498Z,8.79
2023-05-08T00:58:45.895Z,8.60
2023-05-08T01:01:49.722Z,8.61
2023-05-08T01:04:54.070Z,8.68
2023-05-08T01:07:57.276Z,8.73
2023-05-08T01:11:22.698Z,8.74
2023-05-08T01:14:40.330Z,8.69
2023-05-08T01:18:18.639Z,8.68
2023-05-08T01:21:32.490Z,8.72
2023-05-08T01:24:56.878Z,8.78
2023-05-08T01:28:45.260Z,8.59
2023-05-08T01:32:20.621Z,8.54
2023-05-08T01:35:30.068Z,8.55
2023-05-08T01:38:40.504Z,8.57
2023-05-08T01:41:49.271Z,8.53
2023-05-08T01:45:01.911Z,8.48
2023-05-08T01:48:08.456Z,8.43
2023-05-08T01:51:22.874Z,8.47
2023-05-08T01:54:28.754Z,8.49
2023-05-08T01:57:36.232Z,8.38
2023-05-08T02:00:41.020Z,8.39
2023-05-08T02:03:46.444Z,8.37
2023-05-08T02:06:51.879Z,8.40
2023-05-08T02:09:58.199Z,8.18
2023-05-08T02:13:02.732Z,7.92
2023-05-08T02:16:08.467Z,8.10
2023-05-08T02:19:12.358Z,8.00
2023-05-08T02:22:18.415Z,7.63
2023-05-08T02:25:22.475Z,7.57
2023-05-08T02:28:31.313Z,7.73
2023-05-08T02:31:36.204Z,7.72
2023-05-08T02:34:48.022Z,7.62
2023-05-08T02:37:59.894Z,7.66
2023-05-08T02:41:06.395Z,7.72
2023-05-08T02:44:09.739Z,7.75
2023-05-08T02:47:32.886Z,7.79
2023-05-08T02:50:35.712Z,7.73
2023-05-08T02:53:48.100Z,7.67
2023-05-08T02:56:58.768Z,7.60
2023-05-08T03:00:20.980Z,7.55
2023-05-08T03:03:27.773Z,7.56
2023-05-08T03:06:39.054Z,7.50
2023-05-08T03:09:49.437Z,7.38
2023-05-08T03:12:54.375Z,7.27
2023-05-08T03:16:02.528Z,7.20
2023-05-08T03:19:10.775Z,7.32
2023-05-08T03:22:15.982Z,7.45
2023-05-08T03:25:20.765Z,7.43
2023-05-08T03:28:24.709Z,7.41
2023-05-08T03:31:32.289Z,7.39
2023-05-08T03:34:36.460Z,7.16
2023-05-08T03:37:39.810Z,7.10
2023-05-08T03:40:43.151Z,7.02
2023-05-08T03:43:46.954Z,7.08
2023-05-08T03:46:51.411Z,7.01
2023-05-08T03:49:55.512Z,6.94
2023-05-08T03:53:01.355Z,6.92
2023-05-08T03:56:05.115Z,6.94
2023-05-08T03:59:22.140Z,6.94
2023-05-08T04:02:44.705Z,6.95
2023-05-08T04:05:58.439Z,6.94
2023-05-08T04:09:24.998Z,7.03
2023-05-08T04:12:50.330Z,7.06
2023-05-08T04:16:06.084Z,7.11
2023-05-08T04:19:18.484Z,7.09
2023-05-08T04:22:25.822Z,7.04
2023-05-08T04:25:31.205Z,7.10
2023-05-08T04:28:35.134Z,7.17
2023-05-08T04:31:40.016Z,7.14
2023-05-08T04:34:42.805Z,7.08
2023-05-08T04:37:46.551Z,7.14
2023-05-08T04:40:49.391Z,7.09
2023-05-08T04:43:54.161Z,7.15
2023-05-08T04:46:56.822Z,7.22
2023-05-08T04:50:02.823Z,7.36
2023-05-08T04:53:07.400Z,7.52
2023-05-08T04:56:10.678Z,7.63
2023-05-08T04:59:14.778Z,8.02
2023-05-08T05:02:20.060Z,8.16
2023-05-08T05:05:23.093Z,8.38
2023-05-08T05:08:26.572Z,8.72
2023-05-08T05:11:29.895Z,8.81
2023-05-08T05:14:33.188Z,8.80
2023-05-08T05:17:36.270Z,8.87
2023-05-08T05:20:39.436Z,8.93
2023-05-08T05:23:42.407Z,8.89
2023-05-08T05:26:46.119Z,8.96
2023-05-08T05:29:48.890Z,9.03
2023-05-08T05:32:52.140Z,9.17
2023-05-08T05:35:54.868Z,9.40
2023-05-08T05:38:58.243Z,9.48
2023-05-08T05:42:01.779Z,9.54
2023-05-08T05:45:05.560Z,9.63
2023-05-08T05:48:08.982Z,9.52
2023-05-08T05:51:12.466Z,9.51
2023-05-08T05:54:15.340Z,9.43
2023-05-08T05:57:18.513Z,9.70
2023-05-08T06:00:22.130Z,9.84
2023-05-08T06:03:25.506Z,10.04
2023-05-08T06:06:29.417Z,10.12
2023-05-08T06:09:32.556Z,10.31
2023-05-08T06:12:35.336Z,10.34
2023-05-08T06:15:38.896Z,10.45
2023-05-08T06:18:41.709Z,10.62
2023-05-08T06:21:45.250Z,10.71
2023-05-08T06:24:48.455Z,10.77
2023-05-08T06:27:51.537Z,10.77
2023-05-08T06:30:54.468Z,10.82
2023-05-08T06:33:58.027Z,10.98
2023-05-08T06:37:00.868Z,11.00
2023-05-08T06:40:12.203Z,11.09
2023-05-08T06:43:15.769Z,11.13
2023-05-08T06:46:18.685Z,11.12
2023-05-08T06:49:23.124Z,11.12
2023-05-08T06:52:26.313Z,11.23
2023-05-08T06:55:29.162Z,11.26
2023-05-08T06:58:32.733Z,11.47
2023-05-08T07:01:35.943Z,11.31
2023-05-08T07:04:39.103Z,11.36
2023-05-08T07:07:42.994Z,11.62
2023-05-08T07:10:46.227Z,11.78
2023-05-08T07:13:49.210Z,11.77
2023-05-08T07:16:52.179Z,11.89
2023-05-08T07:19:54.927Z,12.19
2023-05-08T07:22:57.969Z,12.07
2023-05-08T07:26:00.666Z,12.43
2023-05-08T07:29:03.697Z,12.40
2023-05-08T07:32:08.687Z,12.49
2023-05-08T07:35:13.286Z,12.30
2023-05-08T07:38:16.233Z,12.60
2023-05-08T07:41:19.249Z,13.02
2023-05-08T07:44:21.965Z,13.53
2023-05-08T07:47:25.025Z,13.50
2023-05-08T07:50:27.840Z,13.64
2023-05-08T07:53:31.254Z,13.54
2023-05-08T07:56:34.080Z,13.46
2023-05-08T07:59:37.054Z,13.47
2023-05-08T08:02:40.117Z,13.94
2023-05-08T08:05:43.433Z,14.24
2023-05-08T08:08:46.492Z,14.55
2023-05-08T08:11:49.391Z,14.32
2023-05-08T08:14:52.183Z,14.70
2023-05-08T08:17:55.460Z,15.29
2023-05-08T08:20:58.167Z,14.87
2023-05-08T08:24:01.497Z,15.28
2023-05-08T08:27:04.453Z,15.99
2023-05-08T08:30:16.984Z,16.39
2023-05-08T08:33:21.418Z,16.99
2023-05-08T08:36:24.801Z,16.85
2023-05-08T08:39:28.086Z,16.77
2023-05-08T08:42:31.864Z,18.14
2023-05-08T08:45:34.735Z,18.72
2023-05-08T08:48:39.390Z,19.13
2023-05-08T08:51:54.746Z,18.66
2023-05-08T08:55:03.149Z,18.96
2023-05-08T08:58:23.078Z,19.67
2023-05-08T09:01:29.494Z,19.63
2023-05-08T09:04:34.347Z,19.91
2023-05-08T09:07:38.877Z,18.71
2023-05-08T09:10:42.242Z,19.34
2023-05-08T09:13:45.277Z,19.38
2023-05-08T09:16:48.148Z,19.71
2023-05-08T09:19:52.262Z,19.91
2023-05-08T09:22:55.213Z,19.57
2023-05-08T09:25:58.410Z,20.16
2023-05-08T09:29:18.270Z,20.90
2023-05-08T09:32:21.477Z,21.39
2023-05-08T09:35:37.049Z,21.72
2023-05-08T09:38:42.278Z,22.14
2023-05-08T09:41:59.120Z,22.07
2023-05-08T09:45:02.277Z,22.48
2023-05-08T09:48:05.206Z,21.80
2023-05-08T09:51:08.436Z,21.81
2023-05-08T09:54:18.464Z,21.54
2023-05-08T09:57:21.705Z,22.21
2023-05-08T10:00:29.558Z,22.24
2023-05-08T10:03:49.436Z,22.00
2023-05-08T10:06:59.038Z,22.50
2023-05-08T10:10:06.672Z,22.29
2023-05-08T10:13:09.434Z,22.45
2023-05-08T10:16:16.664Z,22.43
2023-05-08T10:19:22.165Z,22.43
2023-05-08T10:22:26.525Z,21.59
2023-05-08T10:25:34.790Z,21.71
2023-05-08T10:28:50.158Z,22.06
2023-05-08T10:31:55.590Z,21.76
2023-05-08T10:35:03.701Z,21.75
2023-05-08T10:38:09.160Z,21.72
2023-05-08T10:41:12.553Z,22.35
2023-05-08T10:44:15.534Z,22.89
2023-05-08T10:47:46.025Z,21.69
2023-05-08T10:51:03.794Z,22.71
2023-05-08T10:54:18.288Z,23.35
2023-05-08T10:57:21.725Z,23.60
2023-05-08T11:00:24.783Z,22.97
2023-05-08T11:03:32.655Z,22.20
2023-05-08T11:06:45.885Z,23.11
2023-05-08T11:09:49.302Z,23.29
2023-05-08T11:12:53.842Z,23.47
2023-05-08T11:15:57.228Z,23.93
2023-05-08T11:19:20.269Z,22.69
2023-05-08T11:22:27.177Z,23.29
2023-05-08T11:25:45.601Z,23.16
2023-05-08T11:28:58.167Z,22.49
2023-05-08T11:32:01.529Z,23.19
2023-05-08T11:35:11.721Z,24.04
2023-05-08T11:38:20.152Z,24.15
2023-05-08T11:41:24.655Z,23.57
2023-05-08T11:44:28.796Z,24.79
2023-05-08T11:47:38.204Z,24.64
2023-05-08T11:50:41.723Z,23.74
2023-05-08T11:53:45.099Z,23.79
2023-05-08T11:56:50.806Z,24.12
2023-05-08T11:59:53.693Z,24.82
2023-05-08T12:02:56.764Z,24.62
2023-05-08T12:06:00.174Z,23.99
2023-05-08T12:09:05.592Z,23.68
2023-05-08T12:12:08.804Z,24.70
2023-05-08T12:15:14.004Z,24.68
2023-05-08T12:18:17.597Z,25.55
2023-05-08T12:21:21.571Z,25.38
2023-05-08T12:24:26.384Z,25.32
2023-05-08T12:27:29.810Z,25.23
2023-05-08T12:30:33.772Z,24.57
2023-05-08T12:33:36.623Z,24.70
2023-05-08T12:36:40.093Z,24.19
2023-05-08T12:39:45.819Z,24.30
2023-05-08T12:42:51.058Z,25.12
2023-05-08T12:45:53.760Z,24.29
2023-05-08T12:49:04.854Z,24.92
2023-05-08T12:52:13.062Z,24.83
2023-05-08T12:55:30.992Z,25.04
2023-05-08T12:58:35.665Z,24.23
2023-05-08T13:01:39.058Z,24.77
2023-05-08T13:04:41.820Z,24.89
2023-05-08T13:07:44.941Z,24.55
2023-05-08T13:10:52.834Z,24.47
2023-05-08T13:13:56.018Z,24.96
2023-05-08T13:17:00.039Z,24.72
2023-05-08T13:20:06.579Z,23.88
2023-05-08T13:23:10.467Z,24.19
2023-05-08T13:26:13.420Z,24.12
2023-05-08T13:29:16.384Z,23.66
2023-05-08T13:32:19.635Z,23.57
2023-05-08T13:35:22.607Z,23.70
2023-05-08T13:38:26.041Z,24.08
2023-05-08T13:41:28.842Z,24.48
2023-05-08T13:44:31.987Z,24.60
2023-05-08T13:47:35.217Z,24.68
2023-05-08T13:50:38.447Z,25.02
2023-05-08T13:53:41.214Z,24.25
2023-05-08T13:56:44.217Z,24.37
2023-05-08T13:59:47.656Z,23.73
2023-05-08T14:02:52.998Z,23.18
2023-05-08T14:05:56.483Z,23.44
2023-05-08T14:08:59.324Z,22.64
2023-05-08T14:12:02.866Z,22.83
2023-05-08T14:15:06.409Z,21.88
2023-05-08T14:18:10.002Z,22.00
2023-05-08T14:21:12.894Z,22.16
2023-05-08T14:24:15.839Z,21.75
2023-05-08T14:27:18.764Z,21.81
2023-05-08T14:30:21.819Z,21.99
2023-05-08T14:33:24.766Z,21.73
2023-05-08T14:36:27.828Z,21.68
2023-05-08T14:39:30.913Z,21.49
2023-05-08T14:42:33.964Z,21.81
2023-05-08T14:45:36.642Z,21.72
2023-05-08T14:48:40.145Z,21.40
2023-05-08T14:51:42.756Z,21.28
2023-05-08T14:54:48.160Z,21.23
2023-05-08T14:57:51.258Z,21.23
2023-05-08T15:00:54.327Z,21.32
2023-05-08T15:03:57.386Z,21.31
2023-05-08T15:07:00.767Z,20.42
2023-05-08T15:10:04.457Z,20.53
2023-05-08T15:13:07.570Z,20.42
2023-05-08T15:16:10.564Z,20.56
2023-05-08T15:19:13.728Z,20.36
2023-05-08T15:22:17.935Z,20.57
2023-05-08T15:25:21.167Z,20.34
2023-05-08T15:28:24.211Z,20.13
2023-05-08T15:31:27.278Z,19.76
2023-05-08T15:34:32.879Z,19.83
2023-05-08T15:37:37.465Z,19.80
2023-05-08T15:40:40.331Z,19.73
2023-05-08T15:43:45.494Z,19.67
2023-05-08T15:46:48.291Z,19.54
2023-05-08T15:49:51.668Z,19.46
2023-05-08T15:52:54.360Z,19.64
2023-05-08T15:55:57.598Z,19.73
2023-05-08T15:59:00.255Z,19.63
2023-05-08T16:02:06.629Z,19.66
2023-05-08T16:05:10.327Z,19.65
2023-05-08T16:08:13.942Z,19.54
2023-05-08T16:11:17.676Z,19.40
2023-05-08T16:14:20.335Z,19.51
2023-05-08T16:17:23.494Z,19.32
2023-05-08T16:20:26.308Z,19.24
2023-05-08T16:23:29.410Z,19.25
2023-05-08T16:26:32.155Z,19.18
2023-05-08T16:29:35.175Z,19.19
2023-05-08T16:32:37.865Z,19.12
2023-05-08T16:35:41.112Z,18.96
2023-05-08T16:38:43.738Z,19.00
2023-05-08T16:41:46.967Z,18.95
2023-05-08T16:44:49.611Z,18.94
2023-05-08T16:47:52.825Z,18.93
2023-05-08T16:50:57.256Z,18.92
2023-05-08T16:54:00.246Z,18.85
2023-05-08T16:57:03.117Z,18.79
2023-05-08T17:00:06.969Z,18.70
2023-05-08T17:03:09.722Z,18.61
2023-05-08T17:06:12.948Z,18.48
2023-05-08T17:09:17.872Z,18.38
2023-05-08T17:12:21.093Z,18.26
2023-05-08T17:15:23.828Z,18.18
2023-05-08T17:18:26.843Z,18.14
2023-05-08T17:21:31.266Z,18.01
2023-05-08T17:24:35.799Z,17.87
2023-05-08T17:27:39.118Z,17.64
2023-05-08T17:30:42.326Z,17.50
2023-05-08T17:33:45.487Z,17.35
2023-05-08T17:36:48.810Z,17.14
2023-05-08T17:39:51.607Z,16.91
2023-05-08T17:42:54.727Z,16.70
2023-05-08T17:45:57.844Z,16.58
2023-05-08T17:49:00.847Z,16.46
2023-05-08T17:52:05.169Z,16.37
2023-05-08T17:55:09.134Z,16.24
2023-05-08T17:58:12.317Z,16.07
2023-05-08T18:01:15.316Z,15.94
2023-05-08T18:04:18.423Z,15.82
2023-05-08T18:07:21.494Z,15.69
2023-05-08T18:10:24.751Z,15.57
2023-05-08T18:13:28.104Z,15.39
2023-05-08T18:16:31.412Z,15.26
2023-05-08T18:19:34.468Z,15.20
2023-05-08T18:22:37.587Z,15.19
2023-05-08T18:25:40.573Z,15.13
2023-05-08T18:28:44.672Z,15.11
2023-05-08T18:31:47.510Z,15.04
2023-05-08T18:34:50.593Z,14.99
2023-05-08T18:37:53.765Z,14.95
2023-05-08T18:40:56.870Z,14.85
2023-05-08T18:44:03.240Z,14.83
2023-05-08T18:47:07.394Z,14.69
2023-05-08T18:50:13.488Z,14.62
2023-05-08T18:53:17.721Z,14.64
2023-05-08T18:56:21.418Z,14.57
2023-05-08T18:59:24.738Z,14.36
2023-05-08T19:02:28.317Z,14.32
2023-05-08T19:05:31.400Z,14.31
2023-05-08T19:08:34.192Z,14.12
2023-05-08T19:11:37.406Z,14.01
2023-05-08T19:14:40.206Z,13.89
2023-05-08T19:17:43.401Z,13.85
2023-05-08T19:20:46.308Z,13.81
2023-05-08T19:23:49.827Z,13.95
2023-05-08T19:26:52.625Z,14.01
2023-05-08T19:29:55.992Z,13.73
2023-05-08T19:32:58.700Z,13.49
2023-05-08T19:36:01.972Z,13.67
2023-05-08T19:39:05.004Z,13.67
2023-05-08T19:42:10.397Z,13.39
2023-05-08T19:45:13.836Z,13.31
2023-05-08T19:48:19.731Z,13.09
2023-05-08T19:51:22.578Z,13.06
2023-05-08T19:54:25.852Z,12.96
2023-05-08T19:57:28.598Z,13.02
2023-05-08T20:00:32.073Z,12.90
2023-05-08T20:03:35.265Z,12.83
2023-05-08T20:06:39.369Z,12.75
2023-05-08T20:09:42.540Z,12.67
2023-05-08T20:12:45.274Z,12.63
2023-05-08T20:15:48.619Z,12.64
2023-05-08T20:18:53.509Z,12.72
2023-05-08T20:21:56.588Z,12.68
2023-05-08T20:25:00.497Z,12.48
2023-05-08T20:28:04.652Z,12.64
2023-05-08T20:31:07.457Z,12.71
2023-05-08T20:34:10.543Z,12.63
2023-05-08T20:37:13.497Z,12.39
2023-05-08T20:40:17.065Z,12.43
2023-05-08T20:43:19.935Z,11.98
2023-05-08T20:46:23.519Z,12.06
2023-05-08T20:49:26.357Z,12.08
2023-05-08T20:52:31.883Z,11.88
2023-05-08T20:55:34.506Z,12.03
2023-05-08T20:58:37.536Z,11.92
2023-05-08T21:01:40.283Z,11.89
2023-05-08T21:04:43.396Z,11.75
2023-05-08T21:07:46.368Z,11.64
2023-05-08T21:10:49.918Z,11.54
2023-05-08T21:13:52.652Z,11.45
2023-05-08T21:16:56.030Z,11.35
2023-05-08T21:19:58.770Z,11.35
2023-05-08T21:23:01.963Z,11.52
2023-05-08T21:26:04.874Z,11.37
2023-05-08T21:29:07.998Z,11.44
2023-05-08T21:32:10.719Z,11.46
2023-05-08T21:35:13.931Z,11.34
2023-05-08T21:38:16.874Z,11.13
2023-05-08T21:41:20.048Z,11.25
2023-05-08T21:44:23.007Z,11.11
2023-05-08T21:47:28.326Z,11.23
2023-05-08T21:50:31.187Z,11.12
2023-05-08T21:53:34.216Z,11.12
2023-05-08T21:56:37.766Z,10.98
2023-05-08T21:59:40.894Z,10.84
2023-05-08T22:02:43.698Z,10.72
2023-05-08T22:05:46.847Z,10.66
2023-05-08T22:08:49.598Z,10.50
2023-05-08T22:11:52.858Z,10.47
2023-05-08T22:14:55.593Z,10.36
2023-05-08T22:17:59.727Z,10.19
2023-05-08T22:21:02.982Z,10.22
2023-05-08T22:24:06.434Z,10.26
2023-05-08T22:27:09.187Z,10.20
2023-05-08T22:30:12.832Z,9.98
2023-05-08T22:33:15.454Z,10.01
2023-05-08T22:36:19.061Z,10.02
2023-05-08T22:39:21.765Z,10.09
2023-05-08T22:42:26.919Z,10.15
2023-05-08T22:45:29.862Z,10.02
2023-05-08T22:48:32.909Z,9.99
2023-05-08T22:51:36.320Z,10.02
2023-05-08T22:54:39.434Z,10.00
2023-05-08T22:57:42.279Z,10.11
2023-05-08T23:00:45.350Z,10.03
2023-05-08T23:03:48.608Z,10.05
2023-05-08T23:06:51.672Z,10.04
2023-05-08T23:09:55.294Z,9.99
2023-05-08T23:12:58.341Z,9.92
2023-05-08T23:16:01.073Z,9.93
2023-05-08T23:19:04.690Z,9.92
2023-05-08T23:22:07.405Z,9.77
2023-05-08T23:25:12.130Z,9.66
2023-05-08T23:28:14.985Z,9.69
2023-05-08T23:31:18.220Z,9.67
2023-05-08T23:34:21.001Z,9.68
2023-05-08T23:37:24.136Z,9.53
2023-05-08T23:40:26.987Z,9.52
2023-05-08T23:43:30.058Z,9.48
2023-05-08T23:46:32.747Z,9.43
2023-05-08T23:49:36.042Z,9.42
2023-05-08T23:52:38.663Z,9.30
2023-05-08T23:55:42.069Z,9.31
2023-05-08T23:58:44.643Z,9.15
